Time;durP1;ratioP1;P1;durP2;ratioP2;P2;SDS_P1;SDS_P2;PMS_P1;PMS_P2;Temp;Humidity;BMP_temperature;BMP_pressure;BME280_temperature;BME280_humidity;BME280_pressure;Samples;Min_cycle;Max_cycle;Signal;HPM_P1;HPM_P2
2022/04/06 00:00:49;;;;;;;18.20;2.58;;;3.60;99.90;;;;;;5036889;28;20474;-67
2022/04/06 00:03:14;;;;;;;7.60;2.53;;;3.60;99.90;;;;;;5037357;28;20075;-67
2022/04/06 00:05:40;;;;;;;4.03;1.60;;;3.60;99.90;;;;;;5037163;28;20021;-67
2022/04/06 00:08:06;;;;;;;8.88;1.98;;;3.60;99.90;;;;;;5037055;28;20070;-67
2022/04/06 00:10:31;;;;;;;5.55;2.05;;;3.60;99.90;;;;;;5036810;28;20073;-67
2022/04/06 00:13:00;;;;;;;9.73;2.30;;;3.60;99.90;;;;;;5036734;28;20029;-68
2022/04/06 00:15:26;;;;;;;6.90;1.77;;;3.60;99.90;;;;;;5036688;28;20022;-68
2022/04/06 00:17:53;;;;;;;8.68;2.42;;;3.70;99.90;;;;;;5036942;28;20030;-68
2022/04/06 00:20:19;;;;;;;3.92;2.22;;;3.60;99.90;;;;;;5036461;28;20021;-68
2022/04/06 00:22:44;;;;;;;10.07;2.08;;;3.70;99.90;;;;;;5036579;28;20117;-68
2022/04/06 00:25:10;;;;;;;7.18;2.10;;;3.70;99.90;;;;;;5036801;28;20045;-68
2022/04/06 00:27:36;;;;;;;8.88;1.98;;;3.70;99.90;;;;;;5036791;28;20022;-68
2022/04/06 00:30:02;;;;;;;5.15;2.17;;;3.60;99.90;;;;;;5036387;28;20108;-68
2022/04/06 00:32:28;;;;;;;10.55;1.98;;;3.70;99.90;;;;;;5036645;28;20048;-68
2022/04/06 00:37:38;;;;;;;6.63;2.55;;;3.70;99.90;;;;;;5036658;28;20036;-68
2022/04/06 00:40:05;;;;;;;10.07;2.30;;;3.70;99.90;;;;;;5036090;28;20112;-68
2022/04/06 00:42:30;;;;;;;5.75;2.70;;;3.70;99.90;;;;;;5036144;28;20029;-68
2022/04/06 00:44:56;;;;;;;5.10;2.20;;;3.70;99.90;;;;;;5036411;28;20018;-68
2022/04/06 00:47:22;;;;;;;12.15;2.38;;;3.70;99.90;;;;;;5036084;28;20017;-68
2022/04/06 00:49:48;;;;;;;11.25;2.00;;;3.70;99.90;;;;;;5036563;28;20033;-68
2022/04/06 00:52:13;;;;;;;8.18;2.08;;;3.70;99.90;;;;;;5036037;28;20021;-68
2022/04/06 00:54:40;;;;;;;6.68;2.25;;;3.70;99.90;;;;;;5036431;28;20477;-68
2022/04/06 00:57:06;;;;;;;6.32;2.08;;;3.70;99.90;;;;;;5035964;28;20030;-68
2022/04/06 00:59:32;;;;;;;9.05;2.47;;;3.70;99.90;;;;;;5035776;28;20072;-68
2022/04/06 01:01:58;;;;;;;7.32;2.70;;;3.70;99.90;;;;;;5035810;28;20462;-68
2022/04/06 01:04:24;;;;;;;6.80;1.92;;;3.70;99.90;;;;;;5035552;28;20034;-68
2022/04/06 01:06:51;;;;;;;8.15;2.10;;;3.70;99.90;;;;;;5036082;28;20384;-68
2022/04/06 01:09:18;;;;;;;6.13;2.20;;;3.80;99.90;;;;;;5035718;28;20034;-68
2022/04/06 01:11:46;;;;;;;5.85;2.03;;;3.70;99.90;;;;;;5035968;28;20033;-68
2022/04/06 01:14:12;;;;;;;9.43;2.47;;;3.70;99.90;;;;;;5035521;28;20442;-68
2022/04/06 01:16:38;;;;;;;4.35;1.75;;;3.80;99.90;;;;;;5035590;28;20032;-68
2022/04/06 01:19:04;;;;;;;7.10;1.85;;;3.80;99.90;;;;;;5017664;28;20028;-68
2022/04/06 01:21:30;;;;;;;4.88;2.83;;;3.80;99.90;;;;;;5035444;28;20112;-67
2022/04/06 01:23:57;;;;;;;6.22;2.45;;;3.80;99.90;;;;;;5017701;28;20026;-67
2022/04/06 01:26:22;;;;;;;6.47;2.70;;;3.80;99.90;;;;;;5035410;28;20147;-67
2022/04/06 01:28:48;;;;;;;11.77;2.88;;;3.80;99.90;;;;;;5035562;28;20112;-68
2022/04/06 01:31:14;;;;;;;8.85;2.72;;;3.80;99.90;;;;;;5035349;28;20398;-68
2022/04/06 01:33:40;;;;;;;15.02;3.53;;;3.80;99.90;;;;;;5035331;28;20033;-68
2022/04/06 01:36:06;;;;;;;7.15;3.53;;;3.80;99.90;;;;;;5035513;28;20056;-68
2022/04/06 01:38:31;;;;;;;6.47;3.08;;;3.80;99.90;;;;;;5035400;28;20017;-68
2022/04/06 01:40:57;;;;;;;7.55;3.00;;;3.70;99.90;;;;;;5035064;28;20115;-68
2022/04/06 01:43:23;;;;;;;8.15;3.65;;;3.80;99.90;;;;;;5035119;28;20124;-68
2022/04/06 01:45:49;;;;;;;10.20;3.25;;;3.70;99.90;;;;;;5035564;28;20028;-68
2022/04/06 01:48:15;;;;;;;14.30;3.97;;;3.70;99.90;;;;;;5035026;28;20017;-68
2022/04/06 01:53:26;;;;;;;9.98;4.35;;;3.70;99.90;;;;;;5035471;28;20067;-68
2022/04/06 01:55:53;;;;;;;11.23;3.88;;;3.70;99.90;;;;;;5035065;28;20061;-67
2022/04/06 01:58:18;;;;;;;7.90;3.78;;;3.70;99.90;;;;;;5034739;28;20470;-67
2022/04/06 02:00:44;;;;;;;5.22;3.75;;;3.70;99.90;;;;;;5034917;28;20030;-67
2022/04/06 02:03:09;;;;;;;15.68;4.53;;;3.70;99.90;;;;;;5034679;28;20024;-67
2022/04/06 02:05:35;;;;;;;8.00;4.30;;;3.70;99.90;;;;;;5034625;28;20032;-67
2022/04/06 02:08:01;;;;;;;10.45;4.95;;;3.80;99.90;;;;;;5034708;28;20037;-67
2022/04/06 02:10:27;;;;;;;8.07;4.32;;;3.70;99.90;;;;;;5034418;28;20456;-67
2022/04/06 02:12:55;;;;;;;9.32;5.00;;;3.70;99.90;;;;;;5034513;28;20486;-67
2022/04/06 02:15:21;;;;;;;9.27;5.13;;;3.70;99.90;;;;;;5034748;28;20029;-67
2022/04/06 02:17:48;;;;;;;11.80;5.45;;;3.70;99.90;;;;;;5033575;28;20045;-67
2022/04/06 02:20:14;;;;;;;10.57;5.50;;;3.80;99.90;;;;;;5034510;28;20034;-67
2022/04/06 02:22:40;;;;;;;9.63;5.60;;;3.80;99.90;;;;;;5034344;28;20033;-67
2022/04/06 02:25:06;;;;;;;15.02;6.72;;;3.80;99.90;;;;;;5034326;28;20413;-67
2022/04/06 02:27:32;;;;;;;10.57;5.95;;;3.80;99.90;;;;;;5034964;28;20500;-67
2022/04/06 02:29:58;;;;;;;19.55;6.70;;;3.80;99.90;;;;;;5034221;28;20041;-67
2022/04/06 02:32:23;;;;;;;10.35;6.93;;;3.80;99.90;;;;;;5034285;28;20037;-67
2022/04/06 02:34:49;;;;;;;13.60;7.20;;;3.90;99.90;;;;;;5034050;28;20033;-67
2022/04/06 02:37:14;;;;;;;14.48;8.10;;;3.90;99.90;;;;;;5034036;28;20035;-67
2022/04/06 02:39:40;;;;;;;14.40;8.55;;;3.90;99.90;;;;;;5034167;28;20033;-67
2022/04/06 02:42:06;;;;;;;11.98;7.40;;;3.90;99.90;;;;;;5034516;28;20025;-67
2022/04/06 02:44:33;;;;;;;19.60;9.60;;;4.00;99.90;;;;;;5033874;28;20029;-67
2022/04/06 02:46:58;;;;;;;14.50;9.43;;;4.00;99.90;;;;;;5033957;28;20053;-67
2022/04/06 02:49:24;;;;;;;17.50;9.55;;;4.10;99.90;;;;;;5034018;28;20060;-67
2022/04/06 02:51:49;;;;;;;16.70;9.43;;;4.10;99.90;;;;;;5033820;28;20063;-67
2022/04/06 02:54:15;;;;;;;15.77;9.00;;;4.20;99.90;;;;;;5033780;28;20018;-67
2022/04/06 02:56:41;;;;;;;17.70;10.55;;;4.30;99.90;;;;;;5033774;28;20026;-67
2022/04/06 02:59:06;;;;;;;17.45;10.20;;;4.40;99.90;;;;;;5033942;28;20066;-67
2022/04/06 03:01:32;;;;;;;15.57;9.60;;;4.40;99.90;;;;;;5033623;28;20358;-67
2022/04/06 03:03:58;;;;;;;16.63;9.80;;;4.50;99.90;;;;;;5033664;28;20022;-67
2022/04/06 03:06:23;;;;;;;16.92;9.75;;;4.60;99.90;;;;;;5034143;28;20032;-67
2022/04/06 03:08:49;;;;;;;20.50;10.18;;;4.60;99.90;;;;;;5033602;28;20032;-67
2022/04/06 03:11:14;;;;;;;18.88;10.77;;;4.70;99.90;;;;;;5034162;28;20466;-67
2022/04/06 03:13:40;;;;;;;15.70;9.80;;;4.70;99.90;;;;;;5033477;28;20098;-67
2022/04/06 03:16:06;;;;;;;17.98;9.07;;;4.80;99.90;;;;;;5033482;28;20064;-67
2022/04/06 03:18:32;;;;;;;25.40;7.65;;;4.90;99.90;;;;;;5033681;28;20033;-67
2022/04/06 03:20:58;;;;;;;26.05;9.10;;;5.30;99.90;;;;;;5033344;28;20022;-67
2022/04/06 03:23:23;;;;;;;19.30;8.38;;;5.50;99.90;;;;;;5033478;28;20072;-67
2022/04/06 03:25:49;;;;;;;21.42;8.32;;;5.70;99.90;;;;;;5033367;28;20109;-67
2022/04/06 03:28:14;;;;;;;32.67;7.85;;;6.00;99.90;;;;;;5033028;28;20061;-67
2022/04/06 03:30:40;;;;;;;28.85;8.02;;;6.20;99.90;;;;;;5033317;28;20025;-67
2022/04/06 03:33:08;;;;;;;41.05;9.27;;;6.50;99.90;;;;;;5033533;28;20025;-67
2022/04/06 03:35:35;;;;;;;38.75;10.55;;;6.60;99.90;;;;;;5033521;28;20018;-67
2022/04/06 03:38:01;;;;;;;47.55;12.15;;;6.70;99.90;;;;;;5033517;28;20041;-67
2022/04/06 03:40:28;;;;;;;49.47;12.73;;;6.80;99.90;;;;;;5033050;28;20040;-67
2022/04/06 03:42:54;;;;;;;52.08;15.63;;;6.80;99.90;;;;;;5033205;28;20520;-67
2022/04/06 03:45:20;;;;;;;39.72;10.75;;;6.80;99.90;;;;;;5033131;28;20033;-67
2022/04/06 03:47:45;;;;;;;47.50;10.57;;;6.90;99.90;;;;;;5033161;28;20017;-67
2022/04/06 03:50:11;;;;;;;40.33;9.98;;;6.80;99.90;;;;;;5032999;28;20371;-67
2022/04/06 03:52:36;;;;;;;49.40;10.98;;;6.80;99.90;;;;;;5033107;28;20033;-67
2022/04/06 03:55:02;;;;;;;57.28;13.00;;;6.80;99.90;;;;;;5033321;28;20026;-67
2022/04/06 03:57:28;;;;;;;94.30;13.50;;;6.80;99.90;;;;;;5033293;28;20080;-67
2022/04/06 03:59:53;;;;;;;71.65;13.98;;;6.80;99.90;;;;;;5032865;28;20065;-67
2022/04/06 04:02:19;;;;;;;88.22;17.20;;;6.80;99.90;;;;;;5033042;28;20075;-67
2022/04/06 04:04:44;;;;;;;77.20;16.98;;;6.90;99.90;;;;;;5033260;28;20036;-67
2022/04/06 04:07:10;;;;;;;74.63;16.85;;;6.90;99.90;;;;;;5032922;28;20021;-67
2022/04/06 04:09:37;;;;;;;95.53;18.85;;;6.80;99.90;;;;;;5032729;28;20037;-67
2022/04/06 04:12:04;;;;;;;99.13;19.90;;;6.80;99.90;;;;;;5033183;28;20030;-67
2022/04/06 04:14:32;;;;;;;97.60;20.20;;;6.80;99.90;;;;;;5032851;28;20033;-67
2022/04/06 04:16:58;;;;;;;91.32;18.95;;;6.80;99.90;;;;;;5032916;28;20505;-67
2022/04/06 04:19:24;;;;;;;102.50;17.60;;;6.80;99.90;;;;;;5032954;28;20116;-67
2022/04/06 04:21:50;;;;;;;101.35;18.67;;;6.80;99.90;;;;;;5032825;28;20109;-67
2022/04/06 04:24:15;;;;;;;117.13;20.58;;;6.80;99.90;;;;;;5032843;28;20028;-67
2022/04/06 04:26:41;;;;;;;110.75;19.88;;;6.80;99.90;;;;;;5032796;28;20363;-67
2022/04/06 04:29:09;;;;;;;103.40;14.88;;;6.80;99.90;;;;;;5032716;28;20025;-67
2022/04/06 04:31:35;;;;;;;87.85;17.20;;;6.80;99.90;;;;;;5032699;28;20537;-67
2022/04/06 04:34:01;;;;;;;104.53;16.88;;;6.80;99.90;;;;;;5032748;28;20068;-67
2022/04/06 04:36:27;;;;;;;86.20;18.15;;;6.80;99.90;;;;;;5032697;28;20033;-67
2022/04/06 04:38:53;;;;;;;93.72;18.63;;;6.80;99.90;;;;;;5032625;28;20064;-67
2022/04/06 04:41:19;;;;;;;108.78;20.17;;;6.80;99.90;;;;;;5035874;28;20198;-67
2022/04/06 04:43:45;;;;;;;106.35;19.13;;;6.80;99.90;;;;;;5036220;28;20382;-67
2022/04/06 04:46:11;;;;;;;128.55;23.08;;;6.80;99.90;;;;;;5036157;28;20060;-67
2022/04/06 04:48:37;;;;;;;106.60;18.92;;;6.80;99.90;;;;;;5036107;28;20029;-67
2022/04/06 04:51:03;;;;;;;97.75;18.15;;;6.90;99.90;;;;;;5036213;28;20036;-67
2022/04/06 04:53:30;;;;;;;100.43;18.25;;;6.90;99.90;;;;;;5036492;28;20032;-67
2022/04/06 04:55:56;;;;;;;97.97;17.65;;;6.90;99.90;;;;;;5036124;28;20545;-67
2022/04/06 04:58:22;;;;;;;94.82;18.80;;;6.90;99.90;;;;;;5036150;28;20105;-67
2022/04/06 05:00:47;;;;;;;88.53;16.80;;;6.90;99.90;;;;;;5036103;28;20465;-67
2022/04/06 05:03:13;;;;;;;116.82;18.67;;;7.00;99.90;;;;;;5035863;28;20055;-67
2022/04/06 05:05:42;;;;;;;79.63;16.67;;;7.00;99.90;;;;;;5036024;28;20492;-67
2022/04/06 05:08:07;;;;;;;78.68;17.77;;;7.00;99.90;;;;;;5035925;28;20033;-67
2022/04/06 05:10:33;;;;;;;98.47;17.88;;;7.00;99.90;;;;;;5036177;28;20479;-67
2022/04/06 05:12:58;;;;;;;90.15;17.40;;;7.00;99.90;;;;;;5036186;28;20036;-67
2022/04/06 05:15:24;;;;;;;84.85;17.38;;;7.00;99.90;;;;;;5035908;28;20074;-67
2022/04/06 05:17:50;;;;;;;76.22;17.40;;;7.00;99.90;;;;;;5035605;28;20044;-67
2022/04/06 05:20:15;;;;;;;78.82;16.00;;;7.00;99.90;;;;;;5035415;28;20098;-67
2022/04/06 05:22:41;;;;;;;78.65;17.35;;;7.10;99.90;;;;;;5035554;28;20038;-67
2022/04/06 05:25:07;;;;;;;62.15;15.15;;;7.10;99.90;;;;;;5035667;28;20022;-67
2022/04/06 05:27:54;;;;;;;80.55;17.67;;;7.10;99.90;;;;;;5035461;28;20024;-67
2022/04/06 05:30:23;;;;;;;78.32;15.20;;;7.10;99.90;;;;;;5035219;28;20036;-67
2022/04/06 05:32:50;;;;;;;79.95;15.43;;;7.10;99.90;;;;;;5035616;28;20106;-67
2022/04/06 05:35:16;;;;;;;66.18;14.02;;;7.10;99.90;;;;;;5035350;28;20040;-67
2022/04/06 05:37:43;;;;;;;75.93;15.10;;;7.10;99.90;;;;;;5035275;28;20033;-67
2022/04/06 05:40:11;;;;;;;70.32;14.73;;;7.00;99.90;;;;;;5035019;28;20053;-67
2022/04/06 05:42:37;;;;;;;84.32;15.98;;;7.00;99.90;;;;;;5035076;28;20021;-67
2022/04/06 05:45:04;;;;;;;79.07;15.52;;;7.10;99.90;;;;;;5035661;28;20022;-67
2022/04/06 05:47:29;;;;;;;85.47;16.48;;;7.10;99.90;;;;;;5034986;28;20390;-67
2022/04/06 05:49:55;;;;;;;76.82;14.82;;;7.00;99.90;;;;;;5034930;28;20021;-67
2022/04/06 05:52:20;;;;;;;65.50;15.35;;;7.00;99.90;;;;;;5034901;28;20509;-67
2022/04/06 05:54:46;;;;;;;64.00;14.38;;;7.10;99.90;;;;;;5034937;28;20025;-67
2022/04/06 05:57:12;;;;;;;75.85;14.63;;;7.10;99.90;;;;;;5034884;28;20029;-67
2022/04/06 05:59:37;;;;;;;80.50;15.30;;;7.00;99.90;;;;;;5034923;28;20128;-67
2022/04/06 06:02:07;;;;;;;56.53;14.68;;;7.00;99.90;;;;;;5034765;28;20014;-67
2022/04/06 06:04:33;;;;;;;62.65;15.45;;;7.10;99.90;;;;;;5034999;28;20014;-67
2022/04/06 06:06:59;;;;;;;67.30;14.70;;;7.00;99.90;;;;;;5034678;28;20532;-67
2022/04/06 06:09:25;;;;;;;53.40;14.52;;;7.00;99.90;;;;;;5034415;28;20555;-67
2022/04/06 06:11:51;;;;;;;65.63;14.75;;;7.00;99.90;;;;;;5034552;28;20029;-67
2022/04/06 06:14:16;;;;;;;37.70;13.93;;;7.10;99.90;;;;;;5034526;28;20363;-67
2022/04/06 06:16:44;;;;;;;43.88;14.32;;;7.10;99.90;;;;;;5034769;28;20025;-67
2022/04/06 06:19:11;;;;;;;45.63;14.05;;;7.00;99.90;;;;;;5034356;28;20359;-66
2022/04/06 06:21:37;;;;;;;40.92;13.93;;;7.10;99.90;;;;;;5034549;28;20021;-67
2022/04/06 06:24:05;;;;;;;48.60;14.52;;;7.10;99.90;;;;;;5034360;28;20025;-67
2022/04/06 06:26:35;;;;;;;49.95;14.38;;;7.10;99.90;;;;;;5034574;28;20029;-67
2022/04/06 06:29:01;;;;;;;47.75;15.55;;;7.10;99.90;;;;;;5034467;28;20040;-67
2022/04/06 06:31:28;;;;;;;45.25;15.38;;;7.10;99.90;;;;;;5034179;28;20038;-67
2022/04/06 06:33:54;;;;;;;48.42;16.42;;;7.10;99.90;;;;;;5034437;28;20026;-67
2022/04/06 06:36:19;;;;;;;46.35;15.40;;;7.10;99.90;;;;;;5034158;28;20121;-67
2022/04/06 06:38:45;;;;;;;46.63;16.55;;;7.10;99.90;;;;;;5034119;28;20116;-67
2022/04/06 06:41:10;;;;;;;49.03;15.38;;;7.10;99.90;;;;;;5034086;28;20032;-67
2022/04/06 06:43:36;;;;;;;59.92;18.42;;;7.10;99.90;;;;;;5034282;28;20014;-67
2022/04/06 06:46:02;;;;;;;59.50;16.60;;;7.10;99.90;;;;;;5034026;28;20030;-67
2022/04/06 06:48:27;;;;;;;55.65;15.82;;;7.10;99.90;;;;;;5034566;28;20025;-67
2022/04/06 06:50:53;;;;;;;65.93;18.58;;;7.10;99.90;;;;;;5033861;28;20068;-67
2022/04/06 06:53:18;;;;;;;64.07;19.55;;;7.20;99.90;;;;;;5034422;28;20049;-67
2022/04/06 06:55:44;;;;;;;65.18;19.55;;;7.20;99.90;;;;;;5033939;28;20029;-67
2022/04/06 06:58:09;;;;;;;63.20;19.88;;;7.20;99.90;;;;;;5033653;28;20041;-68
2022/04/06 07:00:35;;;;;;;66.28;19.38;;;7.20;99.90;;;;;;5033662;28;20029;-67
2022/04/06 07:03:00;;;;;;;72.47;21.10;;;7.20;99.90;;;;;;5033536;28;20032;-67
2022/04/06 07:05:28;;;;;;;85.50;23.00;;;7.30;99.90;;;;;;5033635;28;20028;-67
2022/04/06 07:07:55;;;;;;;75.50;23.23;;;7.30;99.90;;;;;;5033716;28;20377;-68
2022/04/06 07:10:26;;;;;;;94.45;23.63;;;7.30;99.90;;;;;;5015720;28;20041;-66
2022/04/06 07:12:52;;;;;;;74.03;22.55;;;7.30;99.90;;;;;;5033664;28;20037;-67
2022/04/06 07:15:18;;;;;;;88.95;25.48;;;7.30;99.90;;;;;;5033974;28;20138;-67
2022/04/06 07:17:44;;;;;;;73.93;22.90;;;7.30;99.90;;;;;;5034088;28;20112;-68
2022/04/06 07:20:11;;;;;;;98.03;24.65;;;7.30;99.90;;;;;;5033455;28;20128;-68
2022/04/06 07:22:36;;;;;;;84.63;22.77;;;7.30;99.90;;;;;;5033466;28;20021;-68
2022/04/06 07:25:02;;;;;;;83.65;24.35;;;7.40;99.90;;;;;;5033366;28;20025;-68
2022/04/06 07:27:38;;;;;;;91.82;21.33;;;7.40;99.90;;;;;;5033893;28;20116;-67
2022/04/06 07:30:05;;;;;;;94.10;23.70;;;7.50;99.90;;;;;;5033289;28;20029;-67
2022/04/06 07:32:31;;;;;;;90.68;21.45;;;7.50;99.90;;;;;;5033577;28;20152;-67
2022/04/06 07:34:57;;;;;;;95.78;19.65;;;7.50;99.90;;;;;;5033616;28;20021;-67
2022/04/06 07:37:23;;;;;;;70.80;19.20;;;7.50;99.90;;;;;;5033268;28;20029;-67
2022/04/06 07:39:48;;;;;;;83.68;21.73;;;7.50;99.90;;;;;;5033091;28;20075;-67
2022/04/06 07:42:14;;;;;;;88.45;21.15;;;7.60;99.90;;;;;;5033743;28;20029;-67
2022/04/06 07:44:39;;;;;;;77.43;21.67;;;7.60;99.90;;;;;;5033163;28;20025;-67
2022/04/06 07:47:05;;;;;;;84.50;19.58;;;7.60;99.90;;;;;;5033430;28;20022;-67
2022/04/06 07:49:31;;;;;;;89.45;20.55;;;7.70;99.90;;;;;;5033202;28;20029;-67
2022/04/06 07:51:56;;;;;;;82.60;20.95;;;7.70;99.90;;;;;;5033708;28;20092;-67
2022/04/06 07:54:22;;;;;;;74.78;18.90;;;7.70;99.90;;;;;;5033064;28;20385;-67
2022/04/06 07:56:47;;;;;;;91.95;19.92;;;7.70;99.90;;;;;;5033643;28;20033;-67
2022/04/06 07:59:13;;;;;;;93.00;20.20;;;7.70;99.90;;;;;;5033229;28;20026;-67
2022/04/06 08:01:38;;;;;;;95.28;18.83;;;7.70;99.90;;;;;;5033055;28;20144;-67
2022/04/06 08:04:04;;;;;;;110.65;23.73;;;7.70;99.90;;;;;;5033554;28;20075;-67
2022/04/06 08:06:30;;;;;;;94.68;22.25;;;7.70;99.90;;;;;;5032998;28;20037;-68
2022/04/06 08:08:55;;;;;;;96.88;20.65;;;7.70;99.90;;;;;;5032986;28;20026;-67
2022/04/06 08:11:21;;;;;;;90.38;19.55;;;7.70;99.90;;;;;;5033257;28;20037;-67
2022/04/06 08:13:48;;;;;;;68.43;18.55;;;7.80;99.90;;;;;;5032938;28;20029;-67
2022/04/06 08:16:13;;;;;;;87.60;23.15;;;7.80;99.90;;;;;;5036219;28;20025;-67
2022/04/06 08:18:39;;;;;;;84.25;19.30;;;7.80;99.90;;;;;;5036647;28;20184;-67
2022/04/06 08:21:09;;;;;;;67.07;18.58;;;7.90;99.90;;;;;;5036673;28;20026;-67
2022/04/06 08:23:35;;;;;;;86.63;21.08;;;7.90;99.90;;;;;;5036624;28;20014;-67
2022/04/06 08:26:01;;;;;;;86.97;23.02;;;7.90;99.90;;;;;;5036597;28;20032;-67
2022/04/06 08:28:27;;;;;;;89.40;20.13;;;7.90;99.90;;;;;;5036507;28;20096;-67
2022/04/06 08:30:52;;;;;;;73.05;18.05;;;8.00;99.90;;;;;;5036831;28;20380;-67
2022/04/06 08:33:18;;;;;;;114.88;19.95;;;8.00;99.90;;;;;;5036491;28;20454;-67
2022/04/06 08:35:44;;;;;;;98.80;18.00;;;8.00;99.90;;;;;;5036731;28;20433;-67
2022/04/06 08:38:15;;;;;;;94.97;16.73;;;8.00;99.90;;;;;;5036654;28;20577;-67
2022/04/06 08:40:42;;;;;;;102.53;17.63;;;8.00;99.90;;;;;;5036379;28;20026;-67
2022/04/06 08:43:09;;;;;;;85.35;17.52;;;8.10;99.90;;;;;;5036395;28;20101;-67
2022/04/06 08:45:39;;;;;;;69.38;15.90;;;8.00;99.90;;;;;;5037078;28;20033;-67
2022/04/06 08:48:07;;;;;;;92.57;18.45;;;8.00;99.90;;;;;;5036384;28;20492;-67
2022/04/06 08:50:35;;;;;;;79.20;17.00;;;8.00;99.90;;;;;;5036127;28;20036;-67
2022/04/06 08:53:02;;;;;;;84.18;16.02;;;8.00;99.90;;;;;;5036158;28;20036;-67
2022/04/06 08:55:29;;;;;;;87.20;17.25;;;8.10;99.90;;;;;;5036093;28;20389;-67
2022/04/06 08:58:00;;;;;;;71.38;17.45;;;8.10;99.90;;;;;;5036041;28;20120;-67
2022/04/06 09:00:26;;;;;;;88.07;15.30;;;8.20;99.90;;;;;;5035884;28;20047;-67
2022/04/06 09:02:51;;;;;;;72.53;16.20;;;8.10;99.90;;;;;;5036160;28;20014;-67
2022/04/06 09:05:21;;;;;;;82.15;15.73;;;8.20;99.90;;;;;;5035946;28;20074;-67
2022/04/06 09:07:53;;;;;;;85.82;15.93;;;8.20;99.90;;;;;;5035896;28;20382;-67
2022/04/06 09:10:31;;;;;;;64.18;14.57;;;8.20;99.90;;;;;;5035705;28;20551;-67
2022/04/06 09:13:07;;;;;;;72.07;14.50;;;8.20;99.90;;;;;;5035747;28;20079;-67
2022/04/06 09:15:32;;;;;;;73.07;15.68;;;8.20;99.90;;;;;;5035729;28;20099;-67
2022/04/06 09:18:00;;;;;;;88.70;16.02;;;8.20;99.90;;;;;;5035671;28;20033;-67
2022/04/06 09:20:26;;;;;;;78.40;15.38;;;8.20;99.90;;;;;;5035494;28;20021;-67
2022/04/06 09:22:52;;;;;;;67.95;14.65;;;8.10;99.90;;;;;;5035854;28;20083;-67
2022/04/06 09:25:19;;;;;;;83.65;16.48;;;8.10;99.90;;;;;;5035945;28;20022;-67
2022/04/06 09:27:45;;;;;;;86.20;15.15;;;8.10;99.90;;;;;;5035388;28;20393;-67
2022/04/06 09:30:11;;;;;;;97.25;16.58;;;8.10;99.90;;;;;;5036308;28;20113;-67
2022/04/06 09:32:40;;;;;;;81.90;15.57;;;8.10;99.90;;;;;;5035396;28;20032;-67
2022/04/06 09:35:25;;;;;;;84.72;17.55;;;8.10;99.90;;;;;;5035654;28;20104;-67
2022/04/06 09:38:12;;;;;;;80.78;16.60;;;8.10;99.90;;;;;;5035950;28;20033;-67
2022/04/06 09:40:40;;;;;;;100.82;28.88;;;8.20;99.90;;;;;;5036170;28;20136;-67
2022/04/06 09:43:23;;;;;;;69.35;16.55;;;8.20;99.90;;;;;;5017406;28;20028;-67
2022/04/06 09:48:32;;;;;;;;;;;8.30;99.90;;;;;;5035746;28;20561;-67
2022/04/06 09:50:58;;;;;;;65.90;14.52;;;8.40;99.90;;;;;;5035112;28;19936;-67
2022/04/06 09:53:26;;;;;;;76.43;17.55;;;8.40;99.90;;;;;;5035002;28;20386;-67
2022/04/06 09:55:54;;;;;;;73.60;16.05;;;8.40;99.90;;;;;;5034940;28;20025;-67
2022/04/06 09:58:21;;;;;;;79.25;14.93;;;8.40;99.90;;;;;;5035215;28;20417;-67
2022/04/06 10:00:47;;;;;;;72.57;16.05;;;8.50;99.90;;;;;;5034769;28;20466;-67
2022/04/06 10:03:15;;;;;;;95.97;15.68;;;8.40;99.90;;;;;;5034833;28;20033;-67
2022/04/06 10:05:44;;;;;;;74.53;14.60;;;8.40;99.90;;;;;;5035055;28;20100;-67
2022/04/06 10:08:11;;;;;;;88.15;16.23;;;8.40;99.90;;;;;;5035110;28;20104;-67
2022/04/06 10:10:40;;;;;;;79.93;15.77;;;8.40;99.90;;;;;;5034575;28;20025;-67
2022/04/06 10:13:07;;;;;;;66.43;14.07;;;8.30;99.90;;;;;;5034915;28;20025;-67
2022/04/06 10:15:35;;;;;;;95.47;15.85;;;8.30;99.90;;;;;;5034581;28;20053;-67
2022/04/06 10:18:01;;;;;;;85.28;15.82;;;8.20;99.90;;;;;;5034772;28;20087;-67
2022/04/06 10:20:31;;;;;;;69.35;14.18;;;8.20;99.90;;;;;;5034355;28;20109;-67
2022/04/06 10:22:57;;;;;;;81.90;15.48;;;8.20;99.90;;;;;;5016727;28;20021;-67
2022/04/06 10:25:36;;;;;;;92.43;16.95;;;8.20;99.90;;;;;;5034422;28;20025;-67
2022/04/06 10:28:07;;;;;;;79.15;17.55;;;8.20;99.90;;;;;;5034696;28;20029;-67
2022/04/06 10:30:33;;;;;;;72.82;13.27;;;8.20;99.90;;;;;;5034896;28;20017;-68
2022/04/06 10:32:59;;;;;;;56.90;13.45;;;8.10;99.90;;;;;;5034319;28;20505;-68
2022/04/06 10:35:35;;;;;;;81.45;14.55;;;8.10;99.90;;;;;;5034276;28;20465;-68
2022/04/06 10:38:03;;;;;;;98.80;15.77;;;8.00;99.90;;;;;;5033833;28;20029;-68
2022/04/06 10:40:52;;;;;;;94.40;13.85;;;8.00;99.90;;;;;;5034021;28;20029;-67
2022/04/06 10:43:36;;;;;;;73.57;14.88;;;8.00;99.90;;;;;;5034024;28;20043;-67
2022/04/06 10:46:06;;;;;;;77.05;13.85;;;8.10;99.90;;;;;;5016611;28;20033;-67
2022/04/06 10:48:32;;;;;;;73.32;15.68;;;8.10;99.90;;;;;;5034473;28;20018;-68
2022/04/06 10:51:30;;;;;;;72.00;12.05;;;8.10;99.90;;;;;;5034029;28;20488;-67
2022/04/06 10:53:56;;;;;;;76.40;15.90;;;8.00;99.90;;;;;;5034238;28;20466;-67
2022/04/06 10:56:22;;;;;;;66.65;12.32;;;7.90;99.90;;;;;;5034136;28;20037;-67
2022/04/06 10:58:57;;;;;;;79.53;13.10;;;7.90;99.90;;;;;;5033758;28;20544;-67
2022/04/06 11:01:26;;;;;;;74.05;14.77;;;7.90;99.90;;;;;;5015925;28;20029;-67
2022/04/06 11:03:56;;;;;;;66.30;14.40;;;7.80;99.90;;;;;;5034009;28;20021;-67
2022/04/06 11:06:52;;;;;;;46.08;11.55;;;7.80;99.90;;;;;;5033709;28;20052;-67
2022/04/06 11:12:23;;;;;;;54.13;14.48;;;7.80;99.90;;;;;;5033888;28;20044;-67
2022/04/06 11:14:57;;;;;;;46.60;13.82;;;7.80;99.90;;;;;;5033845;28;20026;-67
2022/04/06 11:17:37;;;;;;;54.03;14.60;;;7.80;99.90;;;;;;5033780;28;20079;-67
2022/04/06 11:20:18;;;;;;;62.95;16.15;;;7.70;99.90;;;;;;5033424;28;20378;-67
2022/04/06 11:22:50;;;;;;;59.10;15.70;;;7.80;99.90;;;;;;5033781;28;20045;-67
2022/04/06 11:25:17;;;;;;;56.10;14.93;;;7.70;99.90;;;;;;5033744;28;20025;-67
2022/04/06 11:27:45;;;;;;;42.85;14.05;;;7.70;99.90;;;;;;5033660;28;20022;-67
2022/04/06 11:30:23;;;;;;;60.70;14.82;;;7.70;99.90;;;;;;5033323;28;20030;-67
2022/04/06 11:32:53;;;;;;;48.97;12.82;;;7.70;99.90;;;;;;5033556;28;20393;-67
2022/04/06 11:35:19;;;;;;;40.63;12.75;;;7.70;99.90;;;;;;5033539;28;20057;-67
2022/04/06 11:37:48;;;;;;;46.35;12.45;;;7.70;99.90;;;;;;5033331;28;20057;-67
2022/04/06 11:40:20;;;;;;;46.17;13.68;;;7.70;99.90;;;;;;5033174;28;20378;-67
2022/04/06 11:42:56;;;;;;;29.77;11.50;;;7.70;99.90;;;;;;5033508;28;20086;-67
2022/04/06 11:45:30;;;;;;;35.97;11.13;;;7.70;99.90;;;;;;5033252;28;20145;-67
2022/04/06 11:47:57;;;;;;;33.30;11.95;;;7.70;99.90;;;;;;5033516;28;20029;-67
2022/04/06 11:50:35;;;;;;;30.30;12.48;;;7.70;99.90;;;;;;5036645;28;20079;-67
2022/04/06 11:53:15;;;;;;;43.13;11.82;;;7.70;99.90;;;;;;5037558;28;20025;-67
2022/04/06 11:55:49;;;;;;;38.80;13.60;;;7.70;99.90;;;;;;5037558;28;20032;-67
2022/04/06 11:58:32;;;;;;;42.38;13.18;;;7.70;99.90;;;;;;5037434;28;20040;-67
2022/04/06 12:01:02;;;;;;;38.13;12.05;;;7.70;99.90;;;;;;5037454;28;20022;-67
2022/04/06 12:03:32;;;;;;;28.80;12.27;;;7.70;99.90;;;;;;5037710;28;20076;-67
2022/04/06 12:05:58;;;;;;;40.33;12.32;;;7.70;99.90;;;;;;5037000;28;20052;-67
2022/04/06 12:08:24;;;;;;;30.63;11.43;;;7.80;99.90;;;;;;5036865;28;20058;-68
2022/04/06 12:10:56;;;;;;;39.55;12.73;;;7.80;99.90;;;;;;5036826;28;20033;-67
2022/04/06 12:13:23;;;;;;;32.10;9.63;;;7.80;99.90;;;;;;5037630;28;20088;-67
2022/04/06 12:15:49;;;;;;;43.10;11.40;;;7.80;99.90;;;;;;5036839;28;20030;-67
2022/04/06 12:18:17;;;;;;;28.65;10.65;;;7.70;99.90;;;;;;5036823;28;20029;-67
2022/04/06 12:20:42;;;;;;;30.25;10.65;;;7.80;99.90;;;;;;5036943;28;20025;-67
2022/04/06 12:23:08;;;;;;;38.65;11.35;;;7.80;99.90;;;;;;5036694;28;20022;-67
2022/04/06 12:25:35;;;;;;;37.40;12.68;;;7.80;99.90;;;;;;5037201;28;20030;-67
2022/04/06 12:28:23;;;;;;;56.97;13.98;;;7.80;99.90;;;;;;5036648;28;20079;-67
2022/04/06 12:31:03;;;;;;;53.10;12.32;;;7.80;99.90;;;;;;5036870;28;20021;-67
2022/04/06 12:33:36;;;;;;;71.70;15.02;;;7.70;99.90;;;;;;5037103;28;20049;-67
2022/04/06 12:36:09;;;;;;;57.97;16.42;;;7.70;99.90;;;;;;5036454;28;20025;-67
2022/04/06 12:38:37;;;;;;;66.65;16.35;;;7.60;99.90;;;;;;5036848;28;20115;-67
2022/04/06 12:41:13;;;;;;;73.40;16.67;;;7.70;99.90;;;;;;5036550;28;20026;-67
2022/04/06 12:43:46;;;;;;;73.78;16.08;;;7.60;99.90;;;;;;5036635;28;20017;-67
2022/04/06 12:46:12;;;;;;;71.03;16.85;;;7.70;99.90;;;;;;5036335;28;20048;-67
2022/04/06 12:48:39;;;;;;;71.80;16.55;;;7.70;99.90;;;;;;5036180;28;20093;-67
2022/04/06 12:51:23;;;;;;;87.63;15.00;;;7.70;99.90;;;;;;5036467;28;20482;-67
2022/04/06 12:53:50;;;;;;;74.40;15.57;;;7.70;99.90;;;;;;5036148;28;20036;-67